Aviation Digital Data Service (ADDS)

Output produced by METARs form (0043 UTC 19 October 2019)
found at http://www.aviationweather.gov/metar/data/
 
METAR text: ESMS 190020Z AUTO 23013KT 9999 FEW022/// 11/08 Q1006
Conditions at: ESMS (MALMO/STURUP , SE) observed 0020 UTC 19 October 2019
Temperature: 11.0°C (52°F)
Dewpoint: 8.0°C (46°F) [RH = 82%]
Pressure (altimeter): 29.70 inches Hg (1006.0 mb)
Winds: from the SW (230 degrees) at 15 MPH (13 knots; 6.7 m/s)
Visibility: 6 or more miles (10+ km)
Ceiling: at least 12,000 feet AGL
Clouds: few clouds at 2200 feet AGL
Weather: no significant weather observed at this time

METAR text: ESMS 182350Z 23013KT 9999 BKN022 11/08 Q1005
Conditions at: ESMS (MALMO/STURUP , SE) observed 2350 UTC 18 October 2019
Temperature: 11.0°C (52°F)
Dewpoint: 8.0°C (46°F) [RH = 82%]
Pressure (altimeter): 29.68 inches Hg (1005.0 mb)
Winds: from the SW (230 degrees) at 15 MPH (13 knots; 6.7 m/s)
Visibility: 6 or more miles (10+ km)
Ceiling: 2200 feet AGL
Clouds: broken clouds at 2200 feet AGL
Weather: no significant weather observed at this time

METAR text: ESMS 182320Z 23013KT 9999 FEW021 11/09 Q1005
Conditions at: ESMS (MALMO/STURUP , SE) observed 2320 UTC 18 October 2019
Temperature: 11.0°C (52°F)
Dewpoint: 9.0°C (48°F) [RH = 87%]
Pressure (altimeter): 29.68 inches Hg (1005.0 mb)
Winds: from the SW (230 degrees) at 15 MPH (13 knots; 6.7 m/s)
Visibility: 6 or more miles (10+ km)
Ceiling: at least 12,000 feet AGL
Clouds: few clouds at 2100 feet AGL
Weather: no significant weather observed at this time

METAR text: ESMS 182250Z 23013KT CAVOK 11/08 Q1005
Conditions at: ESMS (MALMO/STURUP , SE) observed 2250 UTC 18 October 2019
Temperature: 11.0°C (52°F)
Dewpoint: 8.0°C (46°F) [RH = 82%]
Pressure (altimeter): 29.68 inches Hg (1005.0 mb)
Winds: from the SW (230 degrees) at 15 MPH (13 knots; 6.7 m/s)
Visibility: 6 or more miles (10+ km)
Ceiling: ceiling and visibility are OK
Clouds: unknown
Weather: no significant weather observed at this time

METAR text: ESMS 182220Z 23014KT CAVOK 11/08 Q1005
Conditions at: ESMS (MALMO/STURUP , SE) observed 2220 UTC 18 October 2019
Temperature: 11.0°C (52°F)
Dewpoint: 8.0°C (46°F) [RH = 82%]
Pressure (altimeter): 29.68 inches Hg (1005.0 mb)
Winds: from the SW (230 degrees) at 16 MPH (14 knots; 7.2 m/s)
Visibility: 6 or more miles (10+ km)
Ceiling: ceiling and visibility are OK
Clouds: unknown
Weather: no significant weather observed at this time

METAR text: ESMS 182150Z 23013KT 9999 SCT025 BKN051 12/09 Q1005
Conditions at: ESMS (MALMO/STURUP , SE) observed 2150 UTC 18 October 2019
Temperature: 12.0°C (54°F)
Dewpoint: 9.0°C (48°F) [RH = 82%]
Pressure (altimeter): 29.68 inches Hg (1005.0 mb)
Winds: from the SW (230 degrees) at 15 MPH (13 knots; 6.7 m/s)
Visibility: 6 or more miles (10+ km)
Ceiling: 5100 feet AGL
Clouds: scattered clouds at 2500 feet AGL
broken clouds at 5100 feet AGL
Weather: no significant weather observed at this time

METAR text: ESMS 182120Z 22014KT 9999 FEW019 BKN034 12/10 Q1004
Conditions at: ESMS (MALMO/STURUP , SE) observed 2120 UTC 18 October 2019
Temperature: 12.0°C (54°F)
Dewpoint: 10.0°C (50°F) [RH = 88%]
Pressure (altimeter): 29.65 inches Hg (1004.0 mb)
Winds: from the SW (220 degrees) at 16 MPH (14 knots; 7.2 m/s)
Visibility: 6 or more miles (10+ km)
Ceiling: 3400 feet AGL
Clouds: few clouds at 1900 feet AGL
broken clouds at 3400 feet AGL
Weather: no significant weather observed at this time

METAR text: ESMS 182050Z 22014KT 9999 SCT019 BKN026 12/10 Q1004
Conditions at: ESMS (MALMO/STURUP , SE) observed 2050 UTC 18 October 2019
Temperature: 12.0°C (54°F)
Dewpoint: 10.0°C (50°F) [RH = 88%]
Pressure (altimeter): 29.65 inches Hg (1004.0 mb)
Winds: from the SW (220 degrees) at 16 MPH (14 knots; 7.2 m/s)
Visibility: 6 or more miles (10+ km)
Ceiling: 2600 feet AGL
Clouds: scattered clouds at 1900 feet AGL
broken clouds at 2600 feet AGL
Weather: no significant weather observed at this time

METAR text: ESMS 182020Z 20011KT 9999 SCT022 BKN027 12/10 Q1004
Conditions at: ESMS (MALMO/STURUP , SE) observed 2020 UTC 18 October 2019
Temperature: 12.0°C (54°F)
Dewpoint: 10.0°C (50°F) [RH = 88%]
Pressure (altimeter): 29.65 inches Hg (1004.0 mb)
Winds: from the SSW (200 degrees) at 13 MPH (11 knots; 5.7 m/s)
Visibility: 6 or more miles (10+ km)
Ceiling: 2700 feet AGL
Clouds: scattered clouds at 2200 feet AGL
broken clouds at 2700 feet AGL
Weather: no significant weather observed at this time

METAR text: ESMS 181950Z 21012KT 9999 FEW024 12/10 Q1004
Conditions at: ESMS (MALMO/STURUP , SE) observed 1950 UTC 18 October 2019
Temperature: 12.0°C (54°F)
Dewpoint: 10.0°C (50°F) [RH = 88%]
Pressure (altimeter): 29.65 inches Hg (1004.0 mb)
Winds: from the SSW (210 degrees) at 14 MPH (12 knots; 6.2 m/s)
Visibility: 6 or more miles (10+ km)
Ceiling: at least 12,000 feet AGL
Clouds: few clouds at 2400 feet AGL
Weather: no significant weather observed at this time

METAR text: ESMS 181920Z 20014KT 9999 RA BKN055 12/10 Q1004
Conditions at: ESMS (MALMO/STURUP , SE) observed 1920 UTC 18 October 2019
Temperature: 12.0°C (54°F)
Dewpoint: 10.0°C (50°F) [RH = 88%]
Pressure (altimeter): 29.65 inches Hg (1004.0 mb)
Winds: from the SSW (200 degrees) at 16 MPH (14 knots; 7.2 m/s)
Visibility: 6 or more miles (10+ km)
Ceiling: 5500 feet AGL
Clouds: broken clouds at 5500 feet AGL
Weather: RA  (moderate rain)

METAR text: ESMS 181850Z 19020KT 9999 -RA FEW010 BKN053 13/11 Q1004
Conditions at: ESMS (MALMO/STURUP , SE) observed 1850 UTC 18 October 2019
Temperature: 13.0°C (55°F)
Dewpoint: 11.0°C (52°F) [RH = 88%]
Pressure (altimeter): 29.65 inches Hg (1004.0 mb)
Winds: from the S (190 degrees) at 23 MPH (20 knots; 10.3 m/s)
Visibility: 6 or more miles (10+ km)
Ceiling: 5300 feet AGL
Clouds: few clouds at 1000 feet AGL
broken clouds at 5300 feet AGL
Weather: -RA  (light rain)

METAR text: ESMS 181820Z 16018KT 9999 -RA SCT016 BKN029 BKN036 14/13 Q1003
Conditions at: ESMS (MALMO/STURUP , SE) observed 1820 UTC 18 October 2019
Temperature: 14.0°C (57°F)
Dewpoint: 13.0°C (55°F) [RH = 94%]
Pressure (altimeter): 29.62 inches Hg (1003.0 mb)
Winds: from the SSE (160 degrees) at 21 MPH (18 knots; 9.3 m/s)
Visibility: 6 or more miles (10+ km)
Ceiling: 2900 feet AGL
Clouds: scattered clouds at 1600 feet AGL
broken clouds at 2900 feet AGL
broken clouds at 3600 feet AGL
Weather: -RA  (light rain)

METAR text: ESMS 181750Z 15015KT 9999 FEW007 SCT044 13/13 Q1003
Conditions at: ESMS (MALMO/STURUP , SE) observed 1750 UTC 18 October 2019
Temperature: 13.0°C (55°F)
Dewpoint: 13.0°C (55°F) [RH = 100%]
Pressure (altimeter): 29.62 inches Hg (1003.0 mb)
Winds: from the SSE (150 degrees) at 17 MPH (15 knots; 7.7 m/s)
Visibility: 6 or more miles (10+ km)
Ceiling: at least 12,000 feet AGL
Clouds: few clouds at 700 feet AGL
scattered clouds at 4400 feet AGL
Weather: no significant weather observed at this time

METAR text: ESMS 181720Z 15014KT 9000 OVC006 13/12 Q1003
Conditions at: ESMS (MALMO/STURUP , SE) observed 1720 UTC 18 October 2019
Temperature: 13.0°C (55°F)
Dewpoint: 12.0°C (54°F) [RH = 94%]
Pressure (altimeter): 29.62 inches Hg (1003.0 mb)
Winds: from the SSE (150 degrees) at 16 MPH (14 knots; 7.2 m/s)
Visibility: 6 miles ( 9 km)
Ceiling: 600 feet AGL
Clouds: overcast cloud deck at 600 feet AGL
Weather: no significant weather observed at this time

METAR text: ESMS 181650Z 14014KT 8000 BR OVC005 13/13 Q1004
Conditions at: ESMS (MALMO/STURUP , SE) observed 1650 UTC 18 October 2019
Temperature: 13.0°C (55°F)
Dewpoint: 13.0°C (55°F) [RH = 100%]
Pressure (altimeter): 29.65 inches Hg (1004.0 mb)
Winds: from the SE (140 degrees) at 16 MPH (14 knots; 7.2 m/s)
Visibility: 5 miles ( 8 km)
Ceiling: 500 feet AGL
Clouds: overcast cloud deck at 500 feet AGL
Weather: BR  (mist)

METAR text: ESMS 181620Z 15013KT 6000 OVC004 13/12 Q1004
Conditions at: ESMS (MALMO/STURUP , SE) observed 1620 UTC 18 October 2019
Temperature: 13.0°C (55°F)
Dewpoint: 12.0°C (54°F) [RH = 94%]
Pressure (altimeter): 29.65 inches Hg (1004.0 mb)
Winds: from the SSE (150 degrees) at 15 MPH (13 knots; 6.7 m/s)
Visibility: 4 miles ( 6 km)
Ceiling: 400 feet AGL
Clouds: overcast cloud deck at 400 feet AGL
Weather: no significant weather observed at this time

METAR text: ESMS 181550Z 15013KT 9999 OVC005 13/12 Q1004
Conditions at: ESMS (MALMO/STURUP , SE) observed 1550 UTC 18 October 2019
Temperature: 13.0°C (55°F)
Dewpoint: 12.0°C (54°F) [RH = 94%]
Pressure (altimeter): 29.65 inches Hg (1004.0 mb)
Winds: from the SSE (150 degrees) at 15 MPH (13 knots; 6.7 m/s)
Visibility: 6 or more miles (10+ km)
Ceiling: 500 feet AGL
Clouds: overcast cloud deck at 500 feet AGL
Weather: no significant weather observed at this time

METAR text: ESMS 181520Z 14012KT 9000 BKN005 13/12 Q1004
Conditions at: ESMS (MALMO/STURUP , SE) observed 1520 UTC 18 October 2019
Temperature: 13.0°C (55°F)
Dewpoint: 12.0°C (54°F) [RH = 94%]
Pressure (altimeter): 29.65 inches Hg (1004.0 mb)
Winds: from the SE (140 degrees) at 14 MPH (12 knots; 6.2 m/s)
Visibility: 6 miles ( 9 km)
Ceiling: 500 feet AGL
Clouds: broken clouds at 500 feet AGL
Weather: no significant weather observed at this time

METAR text: ESMS 181450Z 14011KT 9999 BKN005 13/12 Q1005
Conditions at: ESMS (MALMO/STURUP , SE) observed 1450 UTC 18 October 2019
Temperature: 13.0°C (55°F)
Dewpoint: 12.0°C (54°F) [RH = 94%]
Pressure (altimeter): 29.68 inches Hg (1005.0 mb)
Winds: from the SE (140 degrees) at 13 MPH (11 knots; 5.7 m/s)
Visibility: 6 or more miles (10+ km)
Ceiling: 500 feet AGL
Clouds: broken clouds at 500 feet AGL
Weather: no significant weather observed at this time

METAR text: ESMS 181420Z 15009KT 9999 BKN007 13/12 Q1005
Conditions at: ESMS (MALMO/STURUP , SE) observed 1420 UTC 18 October 2019
Temperature: 13.0°C (55°F)
Dewpoint: 12.0°C (54°F) [RH = 94%]
Pressure (altimeter): 29.68 inches Hg (1005.0 mb)
Winds: from the SSE (150 degrees) at 10 MPH (9 knots; 4.6 m/s)
Visibility: 6 or more miles (10+ km)
Ceiling: 700 feet AGL
Clouds: broken clouds at 700 feet AGL
Weather: no significant weather observed at this time

METAR text: ESMS 181350Z 17011KT 9999 BKN009 14/12 Q1005
Conditions at: ESMS (MALMO/STURUP , SE) observed 1350 UTC 18 October 2019
Temperature: 14.0°C (57°F)
Dewpoint: 12.0°C (54°F) [RH = 88%]
Pressure (altimeter): 29.68 inches Hg (1005.0 mb)
Winds: from the S (170 degrees) at 13 MPH (11 knots; 5.7 m/s)
Visibility: 6 or more miles (10+ km)
Ceiling: 900 feet AGL
Clouds: broken clouds at 900 feet AGL
Weather: no significant weather observed at this time

METAR text: ESMS 181320Z 17011KT 9999 BKN010 14/12 Q1006
Conditions at: ESMS (MALMO/STURUP , SE) observed 1320 UTC 18 October 2019
Temperature: 14.0°C (57°F)
Dewpoint: 12.0°C (54°F) [RH = 88%]
Pressure (altimeter): 29.70 inches Hg (1006.0 mb)
Winds: from the S (170 degrees) at 13 MPH (11 knots; 5.7 m/s)
Visibility: 6 or more miles (10+ km)
Ceiling: 1000 feet AGL
Clouds: broken clouds at 1000 feet AGL
Weather: no significant weather observed at this time

METAR text: ESMS 181250Z 18010KT 9999 BKN009 14/13 Q1006
Conditions at: ESMS (MALMO/STURUP , SE) observed 1250 UTC 18 October 2019
Temperature: 14.0°C (57°F)
Dewpoint: 13.0°C (55°F) [RH = 94%]
Pressure (altimeter): 29.70 inches Hg (1006.0 mb)
Winds: from the S (180 degrees) at 12 MPH (10 knots; 5.1 m/s)
Visibility: 6 or more miles (10+ km)
Ceiling: 900 feet AGL
Clouds: broken clouds at 900 feet AGL
Weather: no significant weather observed at this time

METAR text: ESMS 181220Z 18013KT 9999 BKN009 BKN011 OVC013 14/13 Q1006
Conditions at: ESMS (MALMO/STURUP , SE) observed 1220 UTC 18 October 2019
Temperature: 14.0°C (57°F)
Dewpoint: 13.0°C (55°F) [RH = 94%]
Pressure (altimeter): 29.70 inches Hg (1006.0 mb)
Winds: from the S (180 degrees) at 15 MPH (13 knots; 6.7 m/s)
Visibility: 6 or more miles (10+ km)
Ceiling: 900 feet AGL
Clouds: broken clouds at 900 feet AGL
broken clouds at 1100 feet AGL
overcast cloud deck at 1300 feet AGL
Weather: no significant weather observed at this time

METAR text: ESMS 181150Z 18014KT 9999 BKN009 14/12 Q1007
Conditions at: ESMS (MALMO/STURUP , SE) observed 1150 UTC 18 October 2019
Temperature: 14.0°C (57°F)
Dewpoint: 12.0°C (54°F) [RH = 88%]
Pressure (altimeter): 29.73 inches Hg (1007.0 mb)
Winds: from the S (180 degrees) at 16 MPH (14 knots; 7.2 m/s)
Visibility: 6 or more miles (10+ km)
Ceiling: 900 feet AGL
Clouds: broken clouds at 900 feet AGL
Weather: no significant weather observed at this time

METAR text: ESMS 181120Z 19011KT 9999 SCT008 BKN010 BKN016 14/13 Q1007
Conditions at: ESMS (MALMO/STURUP , SE) observed 1120 UTC 18 October 2019
Temperature: 14.0°C (57°F)
Dewpoint: 13.0°C (55°F) [RH = 94%]
Pressure (altimeter): 29.73 inches Hg (1007.0 mb)
Winds: from the S (190 degrees) at 13 MPH (11 knots; 5.7 m/s)
Visibility: 6 or more miles (10+ km)
Ceiling: 1000 feet AGL
Clouds: scattered clouds at 800 feet AGL
broken clouds at 1000 feet AGL
broken clouds at 1600 feet AGL
Weather: no significant weather observed at this time

METAR text: ESMS 181050Z 19012KT 9999 BKN006 14/13 Q1007
Conditions at: ESMS (MALMO/STURUP , SE) observed 1050 UTC 18 October 2019
Temperature: 14.0°C (57°F)
Dewpoint: 13.0°C (55°F) [RH = 94%]
Pressure (altimeter): 29.73 inches Hg (1007.0 mb)
Winds: from the S (190 degrees) at 14 MPH (12 knots; 6.2 m/s)
Visibility: 6 or more miles (10+ km)
Ceiling: 600 feet AGL
Clouds: broken clouds at 600 feet AGL
Weather: no significant weather observed at this time

METAR text: ESMS 181020Z 18011KT 9999 OVC005 14/13 Q1007
Conditions at: ESMS (MALMO/STURUP , SE) observed 1020 UTC 18 October 2019
Temperature: 14.0°C (57°F)
Dewpoint: 13.0°C (55°F) [RH = 94%]
Pressure (altimeter): 29.73 inches Hg (1007.0 mb)
Winds: from the S (180 degrees) at 13 MPH (11 knots; 5.7 m/s)
Visibility: 6 or more miles (10+ km)
Ceiling: 500 feet AGL
Clouds: overcast cloud deck at 500 feet AGL
Weather: no significant weather observed at this time

METAR text: ESMS 180950Z 18013KT 9999 SCT003 BKN005 13/13 Q1008
Conditions at: ESMS (MALMO/STURUP , SE) observed 0950 UTC 18 October 2019
Temperature: 13.0°C (55°F)
Dewpoint: 13.0°C (55°F) [RH = 100%]
Pressure (altimeter): 29.76 inches Hg (1008.0 mb)
Winds: from the S (180 degrees) at 15 MPH (13 knots; 6.7 m/s)
Visibility: 6 or more miles (10+ km)
Ceiling: 500 feet AGL
Clouds: scattered clouds at 300 feet AGL
broken clouds at 500 feet AGL
Weather: no significant weather observed at this time

METAR text: ESMS 180920Z 17011KT 7000 OVC003 13/13 Q1008
Conditions at: ESMS (MALMO/STURUP , SE) observed 0920 UTC 18 October 2019
Temperature: 13.0°C (55°F)
Dewpoint: 13.0°C (55°F) [RH = 100%]
Pressure (altimeter): 29.76 inches Hg (1008.0 mb)
Winds: from the S (170 degrees) at 13 MPH (11 knots; 5.7 m/s)
Visibility: 4 miles ( 7 km)
Ceiling: 300 feet AGL
Clouds: overcast cloud deck at 300 feet AGL
Weather: no significant weather observed at this time

METAR text: ESMS 180850Z 16010KT 6000 -DZ OVC003 13/12 Q1008
Conditions at: ESMS (MALMO/STURUP , SE) observed 0850 UTC 18 October 2019
Temperature: 13.0°C (55°F)
Dewpoint: 12.0°C (54°F) [RH = 94%]
Pressure (altimeter): 29.76 inches Hg (1008.0 mb)
Winds: from the SSE (160 degrees) at 12 MPH (10 knots; 5.1 m/s)
Visibility: 4 miles ( 6 km)
Ceiling: 300 feet AGL
Clouds: overcast cloud deck at 300 feet AGL
Weather: -DZ  (light drizzle)

METAR text: ESMS 180820Z 16011KT 5000 BR OVC002 13/12 Q1008
Conditions at: ESMS (MALMO/STURUP , SE) observed 0820 UTC 18 October 2019
Temperature: 13.0°C (55°F)
Dewpoint: 12.0°C (54°F) [RH = 94%]
Pressure (altimeter): 29.76 inches Hg (1008.0 mb)
Winds: from the SSE (160 degrees) at 13 MPH (11 knots; 5.7 m/s)
Visibility: 3 miles ( 5 km)
Ceiling: 200 feet AGL
Clouds: overcast cloud deck at 200 feet AGL
Weather: BR  (mist)

METAR text: ESMS 180750Z 16010KT 9999 OVC003 13/13 Q1008
Conditions at: ESMS (MALMO/STURUP , SE) observed 0750 UTC 18 October 2019
Temperature: 13.0°C (55°F)
Dewpoint: 13.0°C (55°F) [RH = 100%]
Pressure (altimeter): 29.76 inches Hg (1008.0 mb)
Winds: from the SSE (160 degrees) at 12 MPH (10 knots; 5.1 m/s)
Visibility: 6 or more miles (10+ km)
Ceiling: 300 feet AGL
Clouds: overcast cloud deck at 300 feet AGL
Weather: no significant weather observed at this time

METAR text: ESMS 180720Z 15010KT 4600 BR OVC002 13/12 Q1008
Conditions at: ESMS (MALMO/STURUP , SE) observed 0720 UTC 18 October 2019
Temperature: 13.0°C (55°F)
Dewpoint: 12.0°C (54°F) [RH = 94%]
Pressure (altimeter): 29.76 inches Hg (1008.0 mb)
Winds: from the SSE (150 degrees) at 12 MPH (10 knots; 5.1 m/s)
Visibility: 2.86 miles (4.60 km)
Ceiling: 200 feet AGL
Clouds: overcast cloud deck at 200 feet AGL
Weather: BR  (mist)

METAR text: ESMS 180650Z 15009KT 2400 BR OVC002 12/12 Q1008
Conditions at: ESMS (MALMO/STURUP , SE) observed 0650 UTC 18 October 2019
Temperature: 12.0°C (54°F)
Dewpoint: 12.0°C (54°F) [RH = 100%]
Pressure (altimeter): 29.76 inches Hg (1008.0 mb)
Winds: from the SSE (150 degrees) at 10 MPH (9 knots; 4.6 m/s)
Visibility: 1.49 miles (2.40 km)
Ceiling: 200 feet AGL
Clouds: overcast cloud deck at 200 feet AGL
Weather: BR  (mist)

METAR text: ESMS 180620Z 15008KT 0500 R17/P1500N R35/1100D FG OVC002 12/12 Q1008
Conditions at: ESMS (MALMO/STURUP , SE) observed 0620 UTC 18 October 2019
Temperature: 12.0°C (54°F)
Dewpoint: 12.0°C (54°F) [RH = 100%]
Pressure (altimeter): 29.76 inches Hg (1008.0 mb)
Winds: from the SSE (150 degrees) at 9 MPH (8 knots; 4.1 m/s)
Visibility: 0.31 miles (0.50 km)
Ceiling: 200 feet AGL
Clouds: overcast cloud deck at 200 feet AGL
Weather: FG  (fog)

METAR text: ESMS 180550Z 15007KT 2000 BR OVC002 12/12 Q1008
Conditions at: ESMS (MALMO/STURUP , SE) observed 0550 UTC 18 October 2019
Temperature: 12.0°C (54°F)
Dewpoint: 12.0°C (54°F) [RH = 100%]
Pressure (altimeter): 29.76 inches Hg (1008.0 mb)
Winds: from the SSE (150 degrees) at 8 MPH (7 knots; 3.6 m/s)
Visibility: 1.24 miles (2.00 km)
Ceiling: 200 feet AGL
Clouds: overcast cloud deck at 200 feet AGL
Weather: BR  (mist)

METAR text: ESMS 180520Z 14006KT 1900 -DZ OVC002 12/12 Q1009
Conditions at: ESMS (MALMO/STURUP , SE) observed 0520 UTC 18 October 2019
Temperature: 12.0°C (54°F)
Dewpoint: 12.0°C (54°F) [RH = 100%]
Pressure (altimeter): 29.79 inches Hg (1009.0 mb)
Winds: from the SE (140 degrees) at 7 MPH (6 knots; 3.1 m/s)
Visibility: 1.18 miles (1.90 km)
Ceiling: 200 feet AGL
Clouds: overcast cloud deck at 200 feet AGL
Weather: -DZ  (light drizzle)

METAR text: ESMS 180450Z 14006KT 2600 BKN002 12/12 Q1009
Conditions at: ESMS (MALMO/STURUP , SE) observed 0450 UTC 18 October 2019
Temperature: 12.0°C (54°F)
Dewpoint: 12.0°C (54°F) [RH = 100%]
Pressure (altimeter): 29.79 inches Hg (1009.0 mb)
Winds: from the SE (140 degrees) at 7 MPH (6 knots; 3.1 m/s)
Visibility: 1.62 miles (2.61 km)
Ceiling: 200 feet AGL
Clouds: broken clouds at 200 feet AGL
Weather: no significant weather observed at this time

METAR text: ESMS 180420Z 14006KT 3800 -RA OVC002 12/12 Q1009
Conditions at: ESMS (MALMO/STURUP , SE) observed 0420 UTC 18 October 2019
Temperature: 12.0°C (54°F)
Dewpoint: 12.0°C (54°F) [RH = 100%]
Pressure (altimeter): 29.79 inches Hg (1009.0 mb)
Winds: from the SE (140 degrees) at 7 MPH (6 knots; 3.1 m/s)
Visibility: 2.36 miles (3.80 km)
Ceiling: 200 feet AGL
Clouds: overcast cloud deck at 200 feet AGL
Weather: -RA  (light rain)

METAR text: ESMS 180350Z 13005KT 0700 R17/P1500N R35/P1500N -DZ OVC002 12/12 Q1009
Conditions at: ESMS (MALMO/STURUP , SE) observed 0350 UTC 18 October 2019
Temperature: 12.0°C (54°F)
Dewpoint: 12.0°C (54°F) [RH = 100%]
Pressure (altimeter): 29.79 inches Hg (1009.0 mb)
Winds: from the SE (130 degrees) at 6 MPH (5 knots; 2.6 m/s)
Visibility: 0.43 miles (0.69 km)
Ceiling: 200 feet AGL
Clouds: overcast cloud deck at 200 feet AGL
Weather: -DZ  (light drizzle)

METAR text: ESMS 180320Z 11004KT 0700 R17/P1500N R35/P1500N FG OVC002 12/12 Q1009
Conditions at: ESMS (MALMO/STURUP , SE) observed 0320 UTC 18 October 2019
Temperature: 12.0°C (54°F)
Dewpoint: 12.0°C (54°F) [RH = 100%]
Pressure (altimeter): 29.79 inches Hg (1009.0 mb)
Winds: from the ESE (110 degrees) at 5 MPH (4 knots; 2.1 m/s)
Visibility: 0.43 miles (0.69 km)
Ceiling: 200 feet AGL
Clouds: overcast cloud deck at 200 feet AGL
Weather: FG  (fog)

METAR text: ESMS 180250Z 11004KT 0400 R17/P1500N R35/P1500N FG OVC002 12/12 Q1010
Conditions at: ESMS (MALMO/STURUP , SE) observed 0250 UTC 18 October 2019
Temperature: 12.0°C (54°F)
Dewpoint: 12.0°C (54°F) [RH = 100%]
Pressure (altimeter): 29.82 inches Hg (1010.0 mb)
Winds: from the ESE (110 degrees) at 5 MPH (4 knots; 2.1 m/s)
Visibility: 0.25 miles (0.40 km)
Ceiling: 200 feet AGL
Clouds: overcast cloud deck at 200 feet AGL
Weather: FG  (fog)

METAR text: ESMS 180220Z 12003KT 100V160 0150 R17/0800N R35/0800N FG VV002 12/12 Q1010
Conditions at: ESMS (MALMO/STURUP , SE) observed 0220 UTC 18 October 2019
Temperature: 12.0°C (54°F)
Dewpoint: 12.0°C (54°F) [RH = 100%]
Pressure (altimeter): 29.82 inches Hg (1010.0 mb)
Winds: from the ESE (120 degrees) at 3 MPH (3 knots; 1.5 m/s)
Visibility: 0.09 miles (0.14 km)
Ceiling: indefinite ceiling with vertical visibility of 200 feet AGL
Clouds: obscured sky
Weather: FG  (fog)

METAR text: ESMS 180150Z 12003KT 0150 R17/0700N R35/0700N FG VV002 11/11 Q1010
Conditions at: ESMS (MALMO/STURUP , SE) observed 0150 UTC 18 October 2019
Temperature: 11.0°C (52°F)
Dewpoint: 11.0°C (52°F) [RH = 100%]
Pressure (altimeter): 29.82 inches Hg (1010.0 mb)
Winds: from the ESE (120 degrees) at 3 MPH (3 knots; 1.5 m/s)
Visibility: 0.09 miles (0.14 km)
Ceiling: indefinite ceiling with vertical visibility of 200 feet AGL
Clouds: obscured sky
Weather: FG  (fog)

METAR text: ESMS 180120Z 13003KT 0150 R17/0650N R35/0650N FG VV002 11/11 Q1010
Conditions at: ESMS (MALMO/STURUP , SE) observed 0120 UTC 18 October 2019
Temperature: 11.0°C (52°F)
Dewpoint: 11.0°C (52°F) [RH = 100%]
Pressure (altimeter): 29.82 inches Hg (1010.0 mb)
Winds: from the SE (130 degrees) at 3 MPH (3 knots; 1.5 m/s)
Visibility: 0.09 miles (0.14 km)
Ceiling: indefinite ceiling with vertical visibility of 200 feet AGL
Clouds: obscured sky
Weather: FG  (fog)

METAR text: ESMS 180050Z 13001KT 0150 R17/0900N R35/0650N FG VV002 11/10 Q1010
Conditions at: ESMS (MALMO/STURUP , SE) observed 0050 UTC 18 October 2019
Temperature: 11.0°C (52°F)
Dewpoint: 10.0°C (50°F) [RH = 94%]
Pressure (altimeter): 29.82 inches Hg (1010.0 mb)
Winds: from the SE (130 degrees) at 1 MPH (1 knots; 0.5 m/s)
Visibility: 0.09 miles (0.14 km)
Ceiling: indefinite ceiling with vertical visibility of 200 feet AGL
Clouds: obscured sky
Weather: FG  (fog)

METAR text: ESMS 180020Z 12003KT 0400 R17/P1500N R35/1300N FG SCT003 BKN047 11/11 Q1010
Conditions at: ESMS (MALMO/STURUP , SE) observed 0020 UTC 18 October 2019
Temperature: 11.0°C (52°F)
Dewpoint: 11.0°C (52°F) [RH = 100%]
Pressure (altimeter): 29.82 inches Hg (1010.0 mb)
Winds: from the ESE (120 degrees) at 3 MPH (3 knots; 1.5 m/s)
Visibility: 0.25 miles (0.40 km)
Ceiling: 4700 feet AGL
Clouds: scattered clouds at 300 feet AGL
broken clouds at 4700 feet AGL
Weather: FG  (fog)

METAR text: ESMS 172350Z VRB02KT 0450 R17/P1500N R35/P1500N FG OVC003 12/11 Q1011
Conditions at: ESMS (MALMO/STURUP , SE) observed 2350 UTC 17 October 2019
Temperature: 12.0°C (54°F)
Dewpoint: 11.0°C (52°F) [RH = 94%]
Pressure (altimeter): 29.85 inches Hg (1011.0 mb)
Winds: variable direction winds at 2 MPH (2 knots; 1.0 m/s)
Visibility: 0.28 miles (0.45 km)
Ceiling: 300 feet AGL
Clouds: overcast cloud deck at 300 feet AGL
Weather: FG  (fog)

METAR text: ESMS 172320Z 21002KT 2700 BR OVC003 12/12 Q1011
Conditions at: ESMS (MALMO/STURUP , SE) observed 2320 UTC 17 October 2019
Temperature: 12.0°C (54°F)
Dewpoint: 12.0°C (54°F) [RH = 100%]
Pressure (altimeter): 29.85 inches Hg (1011.0 mb)
Winds: from the SSW (210 degrees) at 2 MPH (2 knots; 1.0 m/s)
Visibility: 1.68 miles (2.70 km)
Ceiling: 300 feet AGL
Clouds: overcast cloud deck at 300 feet AGL
Weather: BR  (mist)

METAR text: ESMS 172250Z 22004KT 3700 BR OVC003 12/12 Q1011
Conditions at: ESMS (MALMO/STURUP , SE) observed 2250 UTC 17 October 2019
Temperature: 12.0°C (54°F)
Dewpoint: 12.0°C (54°F) [RH = 100%]
Pressure (altimeter): 29.85 inches Hg (1011.0 mb)
Winds: from the SW (220 degrees) at 5 MPH (4 knots; 2.1 m/s)
Visibility: 2.30 miles (3.70 km)
Ceiling: 300 feet AGL
Clouds: overcast cloud deck at 300 feet AGL
Weather: BR  (mist)

METAR text: ESMS 172220Z 22005KT 3800 BR BKN003 OVC004 12/12 Q1011
Conditions at: ESMS (MALMO/STURUP , SE) observed 2220 UTC 17 October 2019
Temperature: 12.0°C (54°F)
Dewpoint: 12.0°C (54°F) [RH = 100%]
Pressure (altimeter): 29.85 inches Hg (1011.0 mb)
Winds: from the SW (220 degrees) at 6 MPH (5 knots; 2.6 m/s)
Visibility: 2.36 miles (3.80 km)
Ceiling: 300 feet AGL
Clouds: broken clouds at 300 feet AGL
overcast cloud deck at 400 feet AGL
Weather: BR  (mist)

METAR text: ESMS 172150Z 22004KT 4600 BR BKN005 BKN007 OVC049 13/12 Q1011
Conditions at: ESMS (MALMO/STURUP , SE) observed 2150 UTC 17 October 2019
Temperature: 13.0°C (55°F)
Dewpoint: 12.0°C (54°F) [RH = 94%]
Pressure (altimeter): 29.85 inches Hg (1011.0 mb)
Winds: from the SW (220 degrees) at 5 MPH (4 knots; 2.1 m/s)
Visibility: 2.86 miles (4.60 km)
Ceiling: 500 feet AGL
Clouds: broken clouds at 500 feet AGL
broken clouds at 700 feet AGL
overcast cloud deck at 4900 feet AGL
Weather: BR  (mist)

METAR text: ESMS 172120Z 24007KT 7000 BR BKN004 OVC007 13/12 Q1011
Conditions at: ESMS (MALMO/STURUP , SE) observed 2120 UTC 17 October 2019
Temperature: 13.0°C (55°F)
Dewpoint: 12.0°C (54°F) [RH = 94%]
Pressure (altimeter): 29.85 inches Hg (1011.0 mb)
Winds: from the WSW (240 degrees) at 8 MPH (7 knots; 3.6 m/s)
Visibility: 4 miles ( 7 km)
Ceiling: 400 feet AGL
Clouds: broken clouds at 400 feet AGL
overcast cloud deck at 700 feet AGL
Weather: BR  (mist)

METAR text: ESMS 172050Z 22005KT 3400 BR OVC003 13/13 Q1011
Conditions at: ESMS (MALMO/STURUP , SE) observed 2050 UTC 17 October 2019
Temperature: 13.0°C (55°F)
Dewpoint: 13.0°C (55°F) [RH = 100%]
Pressure (altimeter): 29.85 inches Hg (1011.0 mb)
Winds: from the SW (220 degrees) at 6 MPH (5 knots; 2.6 m/s)
Visibility: 2.11 miles (3.40 km)
Ceiling: 300 feet AGL
Clouds: overcast cloud deck at 300 feet AGL
Weather: BR  (mist)

METAR text: ESMS 172020Z 23007KT 3900 BR OVC003 13/13 Q1011
Conditions at: ESMS (MALMO/STURUP , SE) observed 2020 UTC 17 October 2019
Temperature: 13.0°C (55°F)
Dewpoint: 13.0°C (55°F) [RH = 100%]
Pressure (altimeter): 29.85 inches Hg (1011.0 mb)
Winds: from the SW (230 degrees) at 8 MPH (7 knots; 3.6 m/s)
Visibility: 2.42 miles (3.89 km)
Ceiling: 300 feet AGL
Clouds: overcast cloud deck at 300 feet AGL
Weather: BR  (mist)

METAR text: ESMS 171950Z 22008KT 4400 BR OVC003 13/13 Q1011
Conditions at: ESMS (MALMO/STURUP , SE) observed 1950 UTC 17 October 2019
Temperature: 13.0°C (55°F)
Dewpoint: 13.0°C (55°F) [RH = 100%]
Pressure (altimeter): 29.85 inches Hg (1011.0 mb)
Winds: from the SW (220 degrees) at 9 MPH (8 knots; 4.1 m/s)
Visibility: 2.73 miles (4.39 km)
Ceiling: 300 feet AGL
Clouds: overcast cloud deck at 300 feet AGL
Weather: BR  (mist)

METAR text: ESMS 171920Z 22008KT 5000 BR OVC003 13/13 Q1011
Conditions at: ESMS (MALMO/STURUP , SE) observed 1920 UTC 17 October 2019
Temperature: 13.0°C (55°F)
Dewpoint: 13.0°C (55°F) [RH = 100%]
Pressure (altimeter): 29.85 inches Hg (1011.0 mb)
Winds: from the SW (220 degrees) at 9 MPH (8 knots; 4.1 m/s)
Visibility: 3 miles ( 5 km)
Ceiling: 300 feet AGL
Clouds: overcast cloud deck at 300 feet AGL
Weather: BR  (mist)

METAR text: ESMS 171850Z 23008KT 5000 BR BKN003 13/13 Q1010
Conditions at: ESMS (MALMO/STURUP , SE) observed 1850 UTC 17 October 2019
Temperature: 13.0°C (55°F)
Dewpoint: 13.0°C (55°F) [RH = 100%]
Pressure (altimeter): 29.82 inches Hg (1010.0 mb)
Winds: from the SW (230 degrees) at 9 MPH (8 knots; 4.1 m/s)
Visibility: 3 miles ( 5 km)
Ceiling: 300 feet AGL
Clouds: broken clouds at 300 feet AGL
Weather: BR  (mist)

METAR text: ESMS 171820Z 22007KT 7000 OVC003 13/13 Q1010
Conditions at: ESMS (MALMO/STURUP , SE) observed 1820 UTC 17 October 2019
Temperature: 13.0°C (55°F)
Dewpoint: 13.0°C (55°F) [RH = 100%]
Pressure (altimeter): 29.82 inches Hg (1010.0 mb)
Winds: from the SW (220 degrees) at 8 MPH (7 knots; 3.6 m/s)
Visibility: 4 miles ( 7 km)
Ceiling: 300 feet AGL
Clouds: overcast cloud deck at 300 feet AGL
Weather: no significant weather observed at this time

METAR text: ESMS 171750Z 22010KT 3000 BR OVC003 13/13 Q1010
Conditions at: ESMS (MALMO/STURUP , SE) observed 1750 UTC 17 October 2019
Temperature: 13.0°C (55°F)
Dewpoint: 13.0°C (55°F) [RH = 100%]
Pressure (altimeter): 29.82 inches Hg (1010.0 mb)
Winds: from the SW (220 degrees) at 12 MPH (10 knots; 5.1 m/s)
Visibility: 1.86 miles (2.99 km)
Ceiling: 300 feet AGL
Clouds: overcast cloud deck at 300 feet AGL
Weather: BR  (mist)

METAR text: ESMS 171720Z 22008KT 2600 BR OVC003 13/13 Q1010
Conditions at: ESMS (MALMO/STURUP , SE) observed 1720 UTC 17 October 2019
Temperature: 13.0°C (55°F)
Dewpoint: 13.0°C (55°F) [RH = 100%]
Pressure (altimeter): 29.82 inches Hg (1010.0 mb)
Winds: from the SW (220 degrees) at 9 MPH (8 knots; 4.1 m/s)
Visibility: 1.62 miles (2.61 km)
Ceiling: 300 feet AGL
Clouds: overcast cloud deck at 300 feet AGL
Weather: BR  (mist)

METAR text: ESMS 171650Z 23008KT 4000 BR OVC003 13/13 Q1010
Conditions at: ESMS (MALMO/STURUP , SE) observed 1650 UTC 17 October 2019
Temperature: 13.0°C (55°F)
Dewpoint: 13.0°C (55°F) [RH = 100%]
Pressure (altimeter): 29.82 inches Hg (1010.0 mb)
Winds: from the SW (230 degrees) at 9 MPH (8 knots; 4.1 m/s)
Visibility: 2.49 miles (4.01 km)
Ceiling: 300 feet AGL
Clouds: overcast cloud deck at 300 feet AGL
Weather: BR  (mist)

METAR text: ESMS 171620Z 22009KT 2500 RADZ BR OVC003 13/13 Q1010
Conditions at: ESMS (MALMO/STURUP , SE) observed 1620 UTC 17 October 2019
Temperature: 13.0°C (55°F)
Dewpoint: 13.0°C (55°F) [RH = 100%]
Pressure (altimeter): 29.82 inches Hg (1010.0 mb)
Winds: from the SW (220 degrees) at 10 MPH (9 knots; 4.6 m/s)
Visibility: 1.55 miles (2.49 km)
Ceiling: 300 feet AGL
Clouds: overcast cloud deck at 300 feet AGL
Weather: RA DZ BR  (moderate rain, moderate drizzle, mist)

METAR text: ESMS 171550Z 22009KT 4500 BR OVC003 13/13 Q1010
Conditions at: ESMS (MALMO/STURUP , SE) observed 1550 UTC 17 October 2019
Temperature: 13.0°C (55°F)
Dewpoint: 13.0°C (55°F) [RH = 100%]
Pressure (altimeter): 29.82 inches Hg (1010.0 mb)
Winds: from the SW (220 degrees) at 10 MPH (9 knots; 4.6 m/s)
Visibility: 2.80 miles (4.51 km)
Ceiling: 300 feet AGL
Clouds: overcast cloud deck at 300 feet AGL
Weather: BR  (mist)

METAR text: ESMS 171520Z 22009KT 4500 BR OVC003 13/13 Q1009
Conditions at: ESMS (MALMO/STURUP , SE) observed 1520 UTC 17 October 2019
Temperature: 13.0°C (55°F)
Dewpoint: 13.0°C (55°F) [RH = 100%]
Pressure (altimeter): 29.79 inches Hg (1009.0 mb)
Winds: from the SW (220 degrees) at 10 MPH (9 knots; 4.6 m/s)
Visibility: 2.80 miles (4.51 km)
Ceiling: 300 feet AGL
Clouds: overcast cloud deck at 300 feet AGL
Weather: BR  (mist)

METAR text: ESMS 171450Z 22010KT 8000 OVC003 13/13 Q1009
Conditions at: ESMS (MALMO/STURUP , SE) observed 1450 UTC 17 October 2019
Temperature: 13.0°C (55°F)
Dewpoint: 13.0°C (55°F) [RH = 100%]
Pressure (altimeter): 29.79 inches Hg (1009.0 mb)
Winds: from the SW (220 degrees) at 12 MPH (10 knots; 5.1 m/s)
Visibility: 5 miles ( 8 km)
Ceiling: 300 feet AGL
Clouds: overcast cloud deck at 300 feet AGL
Weather: no significant weather observed at this time

METAR text: ESMS 171420Z 22011KT 7000 BR OVC003 13/13 Q1009
Conditions at: ESMS (MALMO/STURUP , SE) observed 1420 UTC 17 October 2019
Temperature: 13.0°C (55°F)
Dewpoint: 13.0°C (55°F) [RH = 100%]
Pressure (altimeter): 29.79 inches Hg (1009.0 mb)
Winds: from the SW (220 degrees) at 13 MPH (11 knots; 5.7 m/s)
Visibility: 4 miles ( 7 km)
Ceiling: 300 feet AGL
Clouds: overcast cloud deck at 300 feet AGL
Weather: BR  (mist)

METAR text: ESMS 171350Z 22010KT 5000 BR OVC003 13/13 Q1009
Conditions at: ESMS (MALMO/STURUP , SE) observed 1350 UTC 17 October 2019
Temperature: 13.0°C (55°F)
Dewpoint: 13.0°C (55°F) [RH = 100%]
Pressure (altimeter): 29.79 inches Hg (1009.0 mb)
Winds: from the SW (220 degrees) at 12 MPH (10 knots; 5.1 m/s)
Visibility: 3 miles ( 5 km)
Ceiling: 300 feet AGL
Clouds: overcast cloud deck at 300 feet AGL
Weather: BR  (mist)

METAR text: ESMS 171320Z 21010KT 8000 OVC004 13/13 Q1009
Conditions at: ESMS (MALMO/STURUP , SE) observed 1320 UTC 17 October 2019
Temperature: 13.0°C (55°F)
Dewpoint: 13.0°C (55°F) [RH = 100%]
Pressure (altimeter): 29.79 inches Hg (1009.0 mb)
Winds: from the SSW (210 degrees) at 12 MPH (10 knots; 5.1 m/s)
Visibility: 5 miles ( 8 km)
Ceiling: 400 feet AGL
Clouds: overcast cloud deck at 400 feet AGL
Weather: no significant weather observed at this time

METAR text: ESMS 171250Z 21011KT 8000 OVC003 13/13 Q1009
Conditions at: ESMS (MALMO/STURUP , SE) observed 1250 UTC 17 October 2019
Temperature: 13.0°C (55°F)
Dewpoint: 13.0°C (55°F) [RH = 100%]
Pressure (altimeter): 29.79 inches Hg (1009.0 mb)
Winds: from the SSW (210 degrees) at 13 MPH (11 knots; 5.7 m/s)
Visibility: 5 miles ( 8 km)
Ceiling: 300 feet AGL
Clouds: overcast cloud deck at 300 feet AGL
Weather: no significant weather observed at this time

Forecast for: ESMS (MALMO/STURUP , SE)
Text: TAF ESMS 182302Z 1900/1924 21012KT 9999 SCT020
Forecast period: 0000 to 1200 UTC 19 October 2019
Forecast type: FROM: standard forecast or significant change
Winds: from the SSW (210 degrees) at 14 MPH (12 knots; 6.2 m/s)
Visibility: 6 or more miles 10+ km)
Ceiling: at least 12,000 feet AGL
Clouds: scattered clouds at 2000 feet AGL
Weather: no significant weather forecast for this period
Text: BECMG 1912/1915 15008KT
Forecast period: 1200 UTC 19 October 2019 to 0000 UTC 20 October 2019
Forecast type: BECOMING: Conditions expected to become as follows by 1500 UTC 19 October 2019
Winds: from the SSE (150 degrees) at 9 MPH (8 knots; 4.1 m/s)
Visibility: 6 or more miles 10+ km)
Ceiling: at least 12,000 feet AGL
Clouds: scattered clouds at 2000 feet AGL
Weather: no significant weather forecast for this period
Text: TEMPO 1918/1922 2000 BR SCT020CB
Forecast period: 1800 to 2200 UTC 19 October 2019
Forecast type: TEMPORARY: The following changes expected for less than half the time period
Visibility: 1.24 miles (2.00 km)
Ceiling: at least 12,000 feet AGL
Clouds: scattered clouds at 2000 feet AGL
Weather: BR  (mist)
Text: TEMPO 1922/1924 2000 SHRA BR BKN008 SCT020CB
Forecast period: 2200 UTC 19 October 2019 to 0000 UTC 20 October 2019
Forecast type: TEMPORARY: The following changes expected for less than half the time period
Visibility: 1.24 miles (2.00 km)
Ceiling: 800 feet AGL
Clouds: broken clouds at 800 feet AGL
scattered clouds at 2000 feet AGL
Weather: SHRA BR  (rain showers, mist)